createdAt,value
2022-12-31T00:00:41.168Z,99.99
2022-12-31T00:01:41.347Z,99.99
2022-12-31T00:02:41.229Z,99.99
2022-12-31T00:03:41.400Z,99.99
2022-12-31T00:04:41.319Z,99.99
2022-12-31T00:05:41.038Z,99.99
2022-12-31T00:06:41.282Z,99.99
2022-12-31T00:08:42.131Z,99.99
2022-12-31T00:09:42.115Z,99.99
2022-12-31T00:10:42.111Z,99.99
2022-12-31T00:11:42.096Z,99.99
2022-12-31T00:12:41.821Z,99.45
2022-12-31T00:13:42.059Z,98.5
2022-12-31T00:14:41.815Z,98.5
2022-12-31T00:15:41.797Z,98.41
2022-12-31T00:16:42.150Z,97.45
2022-12-31T00:17:42.009Z,97.17
2022-12-31T00:18:41.992Z,98.22
2022-12-31T00:19:42.001Z,97.83
2022-12-31T00:20:41.990Z,97.08
2022-12-31T00:21:41.969Z,96.22
2022-12-31T00:22:41.681Z,95.94
2022-12-31T00:23:41.917Z,95.08
2022-12-31T00:24:41.650Z,95.27
2022-12-31T00:25:41.910Z,95.17
2022-12-31T00:26:41.889Z,95.36
2022-12-31T00:27:41.874Z,95.46
2022-12-31T00:28:41.597Z,95.41
2022-12-31T00:29:41.837Z,95.41
2022-12-31T00:30:41.723Z,95.89
2022-12-31T00:31:41.847Z,95.51
2022-12-31T00:32:41.809Z,95.32
2022-12-31T00:33:41.793Z,95.12
2022-12-31T00:34:42.051Z,95.6
2022-12-31T00:35:42.065Z,95.79
2022-12-31T00:36:42.005Z,95.41
2022-12-31T00:37:42.015Z,95.32
2022-12-31T00:38:41.985Z,95.51
2022-12-31T00:39:41.966Z,95.7
2022-12-31T00:40:41.699Z,96.08
2022-12-31T00:41:41.943Z,97.22
2022-12-31T00:42:41.933Z,98.74
2022-12-31T00:43:41.925Z,98.83
2022-12-31T00:44:41.653Z,98.55
2022-12-31T00:45:41.888Z,97.98
2022-12-31T00:47:41.887Z,96.17
2022-12-31T00:48:41.856Z,95.7
2022-12-31T00:49:41.839Z,95.7
2022-12-31T00:50:41.827Z,95.89
2022-12-31T00:51:41.881Z,96.46
2022-12-31T00:52:41.791Z,97.31
2022-12-31T00:53:41.786Z,97.31
2022-12-31T00:54:41.516Z,97.98
2022-12-31T00:55:41.761Z,97.93
2022-12-31T00:56:41.749Z,97.13
2022-12-31T00:57:41.490Z,96.55
2022-12-31T00:58:41.738Z,96.08
2022-12-31T00:59:41.704Z,96.17
2022-12-31T01:00:41.444Z,95.6
2022-12-31T01:01:41.744Z,95.75
2022-12-31T01:02:41.748Z,96.22
2022-12-31T01:03:41.423Z,96.03
2022-12-31T01:04:41.635Z,95.65
2022-12-31T01:05:41.620Z,96.12
2022-12-31T01:06:41.631Z,96.51
2022-12-31T01:07:41.641Z,96.31
2022-12-31T01:08:41.579Z,96.31
2022-12-31T01:09:41.316Z,97.17
2022-12-31T01:10:41.556Z,97.36
2022-12-31T01:11:41.541Z,98.13
2022-12-31T01:12:41.535Z,98.03
2022-12-31T01:13:41.517Z,97.93
2022-12-31T01:14:41.248Z,98.69
2022-12-31T01:15:41.605Z,98.69
2022-12-31T01:16:41.476Z,98.98
2022-12-31T01:17:41.469Z,98.6
2022-12-31T01:18:41.206Z,98.79
2022-12-31T01:19:41.464Z,99.65
2022-12-31T01:20:41.425Z,99.46
2022-12-31T01:21:41.435Z,99.27
2022-12-31T01:22:41.148Z,99.65
2022-12-31T01:23:41.414Z,99.99
2022-12-31T01:24:41.383Z,99.99
2022-12-31T01:25:41.106Z,99.99
2022-12-31T01:26:41.095Z,99.93
2022-12-31T01:27:41.444Z,99.74
2022-12-31T01:28:41.681Z,99.74
2022-12-31T01:29:41.413Z,99.36
2022-12-31T01:30:41.751Z,99.08
2022-12-31T01:31:41.659Z,99.55
2022-12-31T01:32:41.629Z,99.46
2022-12-31T01:33:41.617Z,99.46
2022-12-31T01:34:41.605Z,99.17
2022-12-31T01:35:41.356Z,99.36
2022-12-31T01:36:41.581Z,99.08
2022-12-31T01:37:41.308Z,99.27
2022-12-31T01:38:41.298Z,99.17
2022-12-31T01:39:41.565Z,99.74
2022-12-31T01:40:41.529Z,99.55
2022-12-31T01:41:41.511Z,99.65
2022-12-31T01:42:41.504Z,99.55
2022-12-31T01:43:41.486Z,98.88
2022-12-31T01:44:41.476Z,98.79
2022-12-31T01:45:41.205Z,99.36
2022-12-31T01:46:41.305Z,99.74
2022-12-31T01:47:41.466Z,99.99
2022-12-31T01:48:41.190Z,99.99
2022-12-31T01:49:41.160Z,99.99
2022-12-31T01:50:41.153Z,99.99
2022-12-31T01:51:41.418Z,99.99
2022-12-31T01:52:41.377Z,99.99
2022-12-31T01:53:43.146Z,99.74
2022-12-31T01:54:41.353Z,98.88
2022-12-31T01:55:41.360Z,98.79
2022-12-31T01:56:41.324Z,98.69
2022-12-31T01:57:41.316Z,98.22
2022-12-31T01:58:41.319Z,97.36
2022-12-31T01:59:41.287Z,97.36
2022-12-31T02:00:41.275Z,96.31
2022-12-31T02:01:41.584Z,95.65
2022-12-31T02:02:41.281Z,95.08
2022-12-31T02:03:40.977Z,94.42
2022-12-31T02:04:41.217Z,94.6
2022-12-31T02:05:41.228Z,94.56
2022-12-31T02:06:41.195Z,95.03
2022-12-31T02:07:40.959Z,95.6
2022-12-31T02:08:44.549Z,95.6
2022-12-31T02:09:41.156Z,96.08
2022-12-31T02:10:42.078Z,96.36
2022-12-31T02:11:42.084Z,97.13
2022-12-31T02:12:41.787Z,97.41
2022-12-31T02:13:42.066Z,96.89
2022-12-31T02:14:42.015Z,96.03
2022-12-31T02:15:41.792Z,95.89
2022-12-31T02:16:41.991Z,96.27
2022-12-31T02:17:41.728Z,96.17
2022-12-31T02:18:41.973Z,95.51
2022-12-31T02:19:41.965Z,95.51
2022-12-31T02:20:41.680Z,94.84
2022-12-31T02:21:42.133Z,94.46
2022-12-31T02:22:42.179Z,95.32
2022-12-31T02:23:41.928Z,95.79
2022-12-31T02:24:41.884Z,96.17
2022-12-31T02:25:41.617Z,96.94
2022-12-31T02:26:41.862Z,96.65
2022-12-31T02:27:41.878Z,97.13
2022-12-31T02:28:41.837Z,97.41
2022-12-31T02:29:41.832Z,97.79
2022-12-31T02:30:41.807Z,98.55
2022-12-31T02:31:42.124Z,98.55
2022-12-31T02:32:42.653Z,98.94
2022-12-31T02:33:42.715Z,99.27
2022-12-31T02:34:42.622Z,99.51
2022-12-31T02:35:42.629Z,99.99
2022-12-31T02:36:42.601Z,99.99
2022-12-31T02:37:42.588Z,99.99
2022-12-31T02:38:42.588Z,99.99
2022-12-31T02:39:42.339Z,99.99
2022-12-31T02:40:42.552Z,99.99
2022-12-31T02:41:42.560Z,99.99
2022-12-31T02:42:42.545Z,99.99
2022-12-31T02:43:42.539Z,99.99
2022-12-31T02:44:42.520Z,99.99
2022-12-31T02:45:42.491Z,99.99
2022-12-31T02:46:42.594Z,99.99
2022-12-31T02:47:42.466Z,99.99
2022-12-31T02:48:42.475Z,99.99
2022-12-31T02:49:42.441Z,99.99
2022-12-31T02:50:42.180Z,99.99
2022-12-31T02:51:42.422Z,99.99
2022-12-31T02:52:42.155Z,99.99
2022-12-31T02:53:42.410Z,99.99
2022-12-31T02:54:42.384Z,99.99
2022-12-31T02:55:42.397Z,99.99
2022-12-31T02:56:42.359Z,99.99
2022-12-31T02:57:42.103Z,99.99
2022-12-31T02:58:42.335Z,99.99
2022-12-31T02:59:42.355Z,99.99
2022-12-31T03:00:42.360Z,99.99
2022-12-31T03:01:42.701Z,99.99
2022-12-31T03:02:42.429Z,99.99
2022-12-31T03:03:42.276Z,99.98
2022-12-31T03:04:42.310Z,99.79
2022-12-31T03:05:42.273Z,99.84
2022-12-31T03:06:41.987Z,99.46
2022-12-31T03:07:42.241Z,99.03
2022-12-31T03:08:42.227Z,99.22
2022-12-31T03:09:42.212Z,98.84
2022-12-31T03:10:42.197Z,98.46
2022-12-31T03:11:42.206Z,98.94
2022-12-31T03:12:42.186Z,98.65
2022-12-31T03:13:42.152Z,98.46
2022-12-31T03:14:41.884Z,98.89
2022-12-31T03:15:42.148Z,98.41
2022-12-31T03:16:42.381Z,99.37
2022-12-31T03:17:42.558Z,99.37
2022-12-31T03:18:42.555Z,99.75
2022-12-31T03:19:42.279Z,99.18
2022-12-31T03:20:42.521Z,99.84
2022-12-31T03:21:42.501Z,99.99
2022-12-31T03:22:42.517Z,99.99
2022-12-31T03:23:42.480Z,99.99
2022-12-31T03:24:42.470Z,99.99
2022-12-31T03:25:42.453Z,99.99
2022-12-31T03:26:42.450Z,99.99
2022-12-31T03:27:42.457Z,99.99
2022-12-31T03:28:42.452Z,99.99
2022-12-31T03:29:42.426Z,99.99
2022-12-31T03:30:42.402Z,99.99
2022-12-31T03:31:42.501Z,99.99
2022-12-31T03:32:42.371Z,99.99
2022-12-31T03:49:14.828Z,99.99
2022-12-31T03:50:14.755Z,99.99
2022-12-31T03:51:14.717Z,99.99
2022-12-31T03:52:14.696Z,99.99
2022-12-31T03:53:14.442Z,99.99
2022-12-31T03:54:14.421Z,99.99
2022-12-31T03:55:14.660Z,99.94
2022-12-31T03:56:14.400Z,99.99
2022-12-31T03:57:14.374Z,99.75
2022-12-31T03:58:14.361Z,99.55
2022-12-31T03:59:14.345Z,98.89
2022-12-31T04:00:14.593Z,98.7
2022-12-31T04:01:14.778Z,98.51
2022-12-31T04:02:14.968Z,97.84
2022-12-31T04:03:14.492Z,98.79
2022-12-31T04:04:14.537Z,98.51
2022-12-31T04:05:14.586Z,98.41
2022-12-31T04:06:14.253Z,99.08
2022-12-31T04:07:14.518Z,98.7
2022-12-31T04:08:14.483Z,98.99
2022-12-31T04:09:14.475Z,99.55
2022-12-31T04:10:14.222Z,99.99
2022-12-31T04:11:21.079Z,99.08
2022-12-31T04:12:14.437Z,99.27
2022-12-31T04:13:14.166Z,99.37
2022-12-31T04:14:14.406Z,99.84
2022-12-31T04:15:14.398Z,99.75
2022-12-31T04:16:14.466Z,99.18
2022-12-31T04:17:14.116Z,99.46
2022-12-31T04:18:14.100Z,99.99
2022-12-31T04:19:14.386Z,99.46
2022-12-31T04:20:14.342Z,99.27
2022-12-31T04:21:14.387Z,99.55
2022-12-31T04:22:14.060Z,99.55
2022-12-31T04:23:14.054Z,99.55
2022-12-31T04:24:14.286Z,99.84
2022-12-31T04:25:14.334Z,99.99
2022-12-31T04:26:14.260Z,99.99
2022-12-31T04:27:14.267Z,99.27
2022-12-31T04:28:14.238Z,99.08
2022-12-31T04:29:14.235Z,99.55
2022-12-31T04:30:14.277Z,98.89
2022-12-31T04:31:14.205Z,98.89
2022-12-31T04:32:14.313Z,98.6
2022-12-31T04:33:13.925Z,99.46
2022-12-31T04:34:14.180Z,99.99
2022-12-31T04:35:14.196Z,99.99
2022-12-31T04:36:14.151Z,99.99
2022-12-31T04:37:14.208Z,99.99
2022-12-31T04:38:14.124Z,99.99
2022-12-31T04:39:13.862Z,99.99
2022-12-31T04:40:14.106Z,99.99
2022-12-31T04:41:13.829Z,99.99
2022-12-31T04:42:14.093Z,99.99
2022-12-31T04:43:14.063Z,99.99
2022-12-31T04:44:14.054Z,99.99
2022-12-31T04:45:14.042Z,99.99
2022-12-31T04:46:14.109Z,99.99
2022-12-31T04:47:16.268Z,99.99
2022-12-31T04:48:13.755Z,99.99
2022-12-31T04:49:13.997Z,99.99
2022-12-31T04:50:14.003Z,99.99
2022-12-31T04:51:13.978Z,99.99
2022-12-31T04:52:13.959Z,99.99
2022-12-31T04:53:13.997Z,99.99
2022-12-31T04:54:13.951Z,99.99
2022-12-31T04:55:13.984Z,99.99
2022-12-31T04:56:13.923Z,99.99
2022-12-31T04:57:13.921Z,99.99
2022-12-31T04:58:13.888Z,99.99
2022-12-31T04:59:13.914Z,99.99
2022-12-31T05:00:13.659Z,99.99
2022-12-31T05:01:14.270Z,99.99
2022-12-31T05:02:14.344Z,99.99
2022-12-31T05:03:14.007Z,99.99
2022-12-31T05:04:13.575Z,99.99
2022-12-31T05:05:13.810Z,99.99
2022-12-31T05:06:13.807Z,99.99
2022-12-31T05:07:13.794Z,99.99
2022-12-31T05:08:13.778Z,99.99
2022-12-31T05:09:13.803Z,99.99
2022-12-31T05:10:13.763Z,99.99
2022-12-31T05:11:13.737Z,99.99
2022-12-31T05:12:13.734Z,99.99
2022-12-31T05:13:13.455Z,99.99
2022-12-31T05:14:13.711Z,99.99
2022-12-31T05:15:13.693Z,99.99
2022-12-31T05:16:14.351Z,99.99
2022-12-31T05:17:14.117Z,99.99
2022-12-31T05:18:13.852Z,99.99
2022-12-31T05:19:14.110Z,99.99
2022-12-31T05:20:13.856Z,99.99
2022-12-31T05:21:13.824Z,99.99
2022-12-31T05:22:13.977Z,99.99
2022-12-31T05:23:14.123Z,99.99
2022-12-31T05:24:13.789Z,99.99
2022-12-31T05:25:14.081Z,99.99
2022-12-31T05:26:13.761Z,99.99
2022-12-31T05:27:13.749Z,99.99
2022-12-31T05:28:14.003Z,99.99
2022-12-31T05:29:13.983Z,99.99
2022-12-31T05:30:13.990Z,99.99
2022-12-31T05:31:13.839Z,99.99
2022-12-31T05:32:13.946Z,99.99
2022-12-31T05:33:13.933Z,99.99
2022-12-31T05:34:13.922Z,99.99
2022-12-31T05:35:13.919Z,99.99
2022-12-31T05:36:13.652Z,99.99
2022-12-31T05:37:13.636Z,99.99
2022-12-31T05:38:13.683Z,99.99
2022-12-31T05:39:13.906Z,99.99
2022-12-31T05:40:13.859Z,99.99
2022-12-31T05:41:13.928Z,99.99
2022-12-31T05:42:13.848Z,99.99
2022-12-31T05:43:13.587Z,99.99
2022-12-31T05:44:13.560Z,99.99
2022-12-31T05:45:13.803Z,99.99
2022-12-31T05:46:13.700Z,99.99
2022-12-31T05:47:13.782Z,99.99
2022-12-31T05:48:13.789Z,99.99
2022-12-31T05:49:13.759Z,99.99
2022-12-31T05:50:13.760Z,99.99
2022-12-31T05:51:13.759Z,99.99
2022-12-31T05:52:13.750Z,99.99
2022-12-31T05:53:13.456Z,99.99
2022-12-31T05:54:13.717Z,99.99
2022-12-31T05:55:13.433Z,99.99
2022-12-31T05:56:13.430Z,99.99
2022-12-31T05:57:13.731Z,99.99
2022-12-31T05:58:13.665Z,99.99
2022-12-31T05:59:13.664Z,99.99
2022-12-31T06:00:13.656Z,99.99
2022-12-31T06:01:13.678Z,99.99
2022-12-31T06:02:13.637Z,99.99
2022-12-31T06:03:14.154Z,99.99
2022-12-31T06:04:13.585Z,99.99
2022-12-31T06:05:13.321Z,99.99
2022-12-31T06:06:13.568Z,99.99
2022-12-31T06:07:13.295Z,99.99
2022-12-31T06:08:13.308Z,99.99
2022-12-31T06:09:13.547Z,99.99
2022-12-31T06:10:13.264Z,99.99
2022-12-31T06:11:13.270Z,99.99
2022-12-31T06:12:13.502Z,99.99
2022-12-31T06:13:13.540Z,99.99
2022-12-31T06:14:13.481Z,99.99
2022-12-31T06:15:13.464Z,99.99
2022-12-31T06:16:13.579Z,99.99
2022-12-31T06:17:13.437Z,99.99
2022-12-31T06:18:13.171Z,99.99
2022-12-31T06:19:13.181Z,99.99
2022-12-31T06:20:15.819Z,99.99
2022-12-31T06:21:13.399Z,99.99
2022-12-31T06:22:13.428Z,99.99
2022-12-31T06:23:13.389Z,99.99
2022-12-31T06:24:13.100Z,99.99
2022-12-31T06:25:13.092Z,99.99
2022-12-31T06:26:13.082Z,99.99
2022-12-31T06:27:13.327Z,99.99
2022-12-31T06:28:21.934Z,99.99
2022-12-31T06:29:13.327Z,99.99
2022-12-31T06:30:13.037Z,99.99
2022-12-31T06:31:13.402Z,99.99
2022-12-31T06:32:13.274Z,99.99
2022-12-31T06:33:13.272Z,99.99
2022-12-31T06:34:12.998Z,99.99
2022-12-31T06:35:13.246Z,99.7
2022-12-31T06:36:13.225Z,99.75
2022-12-31T06:37:13.216Z,98.94
2022-12-31T06:38:13.209Z,98.6
2022-12-31T06:39:13.181Z,97.89
2022-12-31T06:40:13.194Z,98.18
2022-12-31T06:41:12.918Z,98.08
2022-12-31T06:42:13.159Z,98.7
2022-12-31T06:43:13.153Z,99.04
2022-12-31T06:44:13.164Z,98.94
2022-12-31T06:45:13.158Z,98.65
2022-12-31T06:46:12.985Z,98.94
2022-12-31T06:47:12.854Z,98.65
2022-12-31T06:48:13.100Z,98.75
2022-12-31T06:49:13.105Z,98.85
2022-12-31T06:50:13.064Z,99.22
2022-12-31T06:51:18.930Z,99.6
2022-12-31T06:52:13.047Z,99.99
2022-12-31T06:53:13.034Z,99.99
2022-12-31T06:54:13.013Z,99.99
2022-12-31T06:55:13.023Z,99.99
2022-12-31T06:56:12.735Z,99.99
2022-12-31T06:57:12.722Z,99.99
2022-12-31T06:58:12.986Z,99.99
2022-12-31T06:59:12.706Z,99.99
2022-12-31T07:00:12.715Z,99.99
2022-12-31T07:01:13.080Z,99.99
2022-12-31T07:02:12.808Z,99.99
2022-12-31T07:03:13.109Z,99.99
2022-12-31T07:04:12.904Z,99.99
2022-12-31T07:05:12.637Z,99.99
2022-12-31T07:06:12.913Z,99.99
2022-12-31T07:07:12.865Z,99.99
2022-12-31T07:08:12.854Z,99.99
2022-12-31T07:09:12.842Z,99.99
2022-12-31T07:10:12.582Z,99.99
2022-12-31T07:11:12.832Z,99.99
2022-12-31T07:12:12.555Z,99.99
2022-12-31T07:13:12.811Z,99.99
2022-12-31T07:14:12.796Z,99.99
2022-12-31T07:15:12.526Z,99.99
2022-12-31T07:16:12.907Z,99.99
2022-12-31T07:17:12.786Z,99.99
2022-12-31T07:18:12.753Z,99.99
2022-12-31T07:19:13.212Z,99.99
2022-12-31T07:20:12.717Z,99.99
2022-12-31T07:21:12.721Z,99.99
2022-12-31T07:22:12.443Z,99.99
2022-12-31T07:23:12.694Z,99.99
2022-12-31T07:24:12.682Z,99.99
2022-12-31T07:25:12.672Z,99.99
2022-12-31T07:26:12.671Z,99.99
2022-12-31T07:27:12.395Z,99.99
2022-12-31T07:28:12.703Z,99.99
2022-12-31T07:29:12.622Z,99.99
2022-12-31T07:30:12.610Z,99.99
2022-12-31T07:31:12.411Z,99.99
2022-12-31T07:32:12.370Z,99.99
2022-12-31T07:33:12.604Z,99.99
2022-12-31T07:34:12.566Z,99.99
2022-12-31T07:35:12.562Z,99.99
2022-12-31T07:36:12.561Z,99.99
2022-12-31T07:37:12.285Z,99.99
2022-12-31T07:38:12.280Z,99.99
2022-12-31T07:39:12.515Z,99.99
2022-12-31T07:40:12.545Z,99.99
2022-12-31T07:41:12.868Z,99.99
2022-12-31T07:42:12.485Z,99.99
2022-12-31T07:43:12.504Z,99.99
2022-12-31T07:44:12.496Z,99.99
2022-12-31T07:45:12.458Z,99.99
2022-12-31T07:46:12.418Z,99.99
2022-12-31T07:47:12.180Z,99.99
2022-12-31T07:48:12.442Z,99.99
2022-12-31T07:49:12.440Z,99.99
2022-12-31T07:50:12.133Z,99.99
2022-12-31T07:51:12.401Z,99.99
2022-12-31T07:52:12.375Z,99.99
2022-12-31T07:53:12.405Z,99.99
2022-12-31T07:54:16.366Z,99.99
2022-12-31T07:55:12.373Z,99.99
2022-12-31T07:56:12.348Z,99.99
2022-12-31T07:57:12.139Z,99.99
2022-12-31T07:58:12.299Z,99.99
2022-12-31T07:59:12.292Z,99.99
2022-12-31T08:00:12.284Z,99.99
2022-12-31T08:01:12.733Z,99.99
2022-12-31T08:02:12.479Z,99.99
2022-12-31T08:03:12.277Z,99.99
2022-12-31T08:04:12.279Z,99.99
2022-12-31T08:05:12.267Z,99.99
2022-12-31T08:06:12.250Z,99.99
2022-12-31T08:07:11.967Z,99.99
2022-12-31T08:08:11.942Z,99.99
2022-12-31T08:09:12.188Z,99.99
2022-12-31T08:10:19.775Z,99.99
2022-12-31T08:11:12.173Z,99.99
2022-12-31T08:12:12.161Z,99.99
2022-12-31T08:13:11.892Z,99.99
2022-12-31T08:14:12.172Z,99.99
2022-12-31T08:15:12.134Z,99.99
2022-12-31T08:16:11.957Z,99.99
2022-12-31T08:17:11.841Z,99.99
2022-12-31T08:18:12.097Z,99.99
2022-12-31T08:19:11.831Z,99.99
2022-12-31T08:20:12.101Z,99.99
2022-12-31T08:21:12.105Z,99.99
2022-12-31T08:22:12.063Z,99.99
2022-12-31T08:23:11.789Z,99.99
2022-12-31T08:24:12.055Z,99.99
2022-12-31T08:25:11.769Z,99.99
2022-12-31T08:26:12.013Z,99.99
2022-12-31T08:27:12.010Z,99.99
2022-12-31T08:28:11.730Z,99.99
2022-12-31T08:29:11.984Z,99.99
2022-12-31T08:30:12.427Z,99.99
2022-12-31T08:31:12.771Z,99.99
2022-12-31T08:32:12.685Z,99.99
2022-12-31T08:33:12.422Z,99.99
2022-12-31T08:34:12.646Z,99.99
2022-12-31T08:35:12.627Z,99.99
2022-12-31T08:36:12.656Z,99.99
2022-12-31T08:37:12.637Z,99.99
2022-12-31T08:38:12.601Z,99.99
2022-12-31T08:39:12.594Z,99.99
2022-12-31T08:40:12.596Z,99.99
2022-12-31T08:41:12.572Z,99.99
2022-12-31T08:42:12.560Z,99.99
2022-12-31T08:43:12.548Z,99.99
2022-12-31T08:44:12.552Z,99.99
2022-12-31T08:45:12.291Z,99.99
2022-12-31T08:46:12.338Z,99.99
2022-12-31T08:47:12.250Z,99.99
2022-12-31T08:48:12.514Z,99.99
2022-12-31T08:49:12.484Z,99.99
2022-12-31T08:50:12.477Z,99.99
2022-12-31T08:51:12.466Z,99.99
2022-12-31T08:52:13.189Z,99.99
2022-12-31T08:53:13.058Z,99.99
2022-12-31T08:54:13.005Z,99.99
2022-12-31T08:55:12.741Z,99.99
2022-12-31T08:56:12.738Z,99.99
2022-12-31T08:57:12.997Z,99.99
2022-12-31T08:58:12.713Z,99.99
2022-12-31T08:59:12.963Z,99.99
2022-12-31T09:00:12.968Z,99.99
2022-12-31T09:01:13.169Z,99.99
2022-12-31T09:02:13.139Z,99.99
2022-12-31T09:03:12.678Z,99.99
2022-12-31T09:04:12.960Z,99.99
2022-12-31T09:05:12.900Z,99.99
2022-12-31T09:06:12.891Z,99.99
2022-12-31T09:07:12.877Z,99.99
2022-12-31T09:08:12.901Z,99.99
2022-12-31T09:09:12.926Z,99.99
2022-12-31T09:10:12.852Z,99.99
2022-12-31T09:11:15.300Z,99.99
2022-12-31T09:12:12.600Z,99.99
2022-12-31T09:13:12.819Z,99.99
2022-12-31T09:14:12.813Z,99.99
2022-12-31T09:15:12.798Z,99.99
2022-12-31T09:16:12.946Z,99.99
2022-12-31T09:17:12.798Z,99.99
2022-12-31T09:18:12.788Z,99.99
2022-12-31T09:19:12.532Z,99.99
2022-12-31T09:20:12.514Z,99.99
2022-12-31T09:21:12.742Z,99.99
2022-12-31T09:22:12.740Z,99.99
2022-12-31T09:23:12.806Z,99.99
2022-12-31T09:24:12.764Z,99.99
2022-12-31T09:25:12.732Z,99.99
2022-12-31T09:26:12.701Z,99.99
2022-12-31T09:27:12.689Z,99.99
2022-12-31T09:28:12.684Z,99.99
2022-12-31T09:29:12.675Z,99.99
2022-12-31T09:30:12.654Z,99.99
2022-12-31T09:31:12.657Z,99.99
2022-12-31T09:32:12.648Z,99.99
2022-12-31T09:33:12.630Z,99.99
2022-12-31T09:34:12.625Z,99.99
2022-12-31T09:35:12.612Z,99.99
2022-12-31T09:36:12.601Z,99.99
2022-12-31T09:37:12.335Z,99.99
2022-12-31T09:38:14.460Z,99.99
2022-12-31T09:39:12.581Z,99.99
2022-12-31T09:40:12.593Z,99.99
2022-12-31T09:41:12.585Z,99.99
2022-12-31T09:42:12.544Z,99.99
2022-12-31T09:43:12.543Z,99.99
2022-12-31T09:44:12.525Z,99.99
2022-12-31T09:45:12.528Z,99.99
2022-12-31T09:46:12.358Z,99.99
2022-12-31T09:47:12.500Z,99.99
2022-12-31T09:48:12.505Z,99.99
2022-12-31T09:49:12.218Z,99.99
2022-12-31T09:50:12.472Z,99.99
2022-12-31T09:51:12.458Z,99.99
2022-12-31T09:52:12.450Z,99.99
2022-12-31T09:53:12.184Z,99.99
2022-12-31T09:54:12.204Z,99.99
2022-12-31T09:55:12.439Z,99.99
2022-12-31T09:56:12.492Z,99.99
2022-12-31T09:57:12.432Z,99.99
2022-12-31T09:58:12.419Z,99.99
2022-12-31T09:59:12.385Z,99.99
2022-12-31T10:00:12.114Z,99.99
2022-12-31T10:01:12.529Z,99.99
2022-12-31T10:02:12.513Z,99.99
2022-12-31T10:03:12.436Z,99.99
2022-12-31T10:04:12.346Z,99.99
2022-12-31T10:05:12.075Z,99.99
2022-12-31T10:06:12.082Z,99.99
2022-12-31T10:07:12.323Z,99.99
2022-12-31T10:08:12.312Z,99.99
2022-12-31T10:09:12.297Z,99.99
2022-12-31T10:10:12.337Z,99.99
2022-12-31T10:11:12.272Z,99.99
2022-12-31T10:12:12.314Z,99.99
2022-12-31T10:13:12.298Z,99.99
2022-12-31T10:14:12.259Z,99.99
2022-12-31T10:15:12.250Z,99.99
2022-12-31T10:16:12.277Z,99.99
2022-12-31T10:17:12.287Z,99.99
2022-12-31T10:18:11.955Z,99.99
2022-12-31T10:19:12.219Z,99.99
2022-12-31T10:20:12.207Z,99.99
2022-12-31T10:21:11.933Z,99.99
2022-12-31T10:22:12.177Z,99.99
2022-12-31T10:23:12.166Z,99.99
2022-12-31T10:24:12.160Z,99.99
2022-12-31T10:25:12.151Z,99.99
2022-12-31T10:26:12.140Z,99.99
2022-12-31T10:27:12.127Z,99.99
2022-12-31T10:28:11.901Z,99.99
2022-12-31T10:29:12.144Z,99.99
2022-12-31T10:30:11.848Z,99.99
2022-12-31T10:31:12.178Z,99.99
2022-12-31T10:32:11.829Z,99.99
2022-12-31T10:33:12.085Z,99.99
2022-12-31T10:34:12.070Z,99.99
2022-12-31T10:35:11.806Z,99.99
2022-12-31T10:36:12.060Z,99.99
2022-12-31T10:37:12.047Z,99.99
2022-12-31T10:38:12.031Z,99.99
2022-12-31T10:39:23.973Z,99.99
2022-12-31T10:40:11.767Z,99.99
2022-12-31T10:41:12.400Z,99.99
2022-12-31T10:42:12.409Z,99.99
2022-12-31T10:43:12.369Z,99.99
2022-12-31T10:44:12.405Z,99.99
2022-12-31T10:45:12.376Z,99.99
2022-12-31T10:46:14.110Z,99.99
2022-12-31T10:47:12.341Z,99.99
2022-12-31T10:48:12.070Z,99.99
2022-12-31T10:49:12.327Z,99.99
2022-12-31T10:50:12.328Z,99.99
2022-12-31T10:51:12.298Z,99.99
2022-12-31T10:52:12.040Z,99.99
2022-12-31T10:53:12.298Z,99.99
2022-12-31T10:54:12.271Z,99.99
2022-12-31T10:55:12.261Z,99.99
2022-12-31T10:56:12.263Z,99.99
2022-12-31T10:57:11.998Z,99.99
2022-12-31T10:58:12.254Z,99.99
2022-12-31T10:59:11.979Z,99.99
2022-12-31T11:00:12.009Z,99.99
2022-12-31T11:01:12.605Z,99.99
2022-12-31T11:02:12.664Z,99.99
2022-12-31T11:03:12.288Z,99.99
2022-12-31T11:04:12.207Z,99.99
2022-12-31T11:05:11.924Z,99.99
2022-12-31T11:06:11.918Z,99.99
2022-12-31T11:07:12.170Z,99.99
2022-12-31T11:08:12.167Z,99.99
2022-12-31T11:09:11.893Z,99.99
2022-12-31T11:10:11.893Z,99.99
2022-12-31T11:11:12.139Z,99.99
2022-12-31T11:12:11.864Z,99.99
2022-12-31T11:13:12.109Z,99.99
2022-12-31T11:14:12.109Z,99.99
2022-12-31T11:15:12.096Z,99.99
2022-12-31T11:16:12.202Z,99.99
2022-12-31T11:17:12.116Z,99.99
2022-12-31T11:18:12.065Z,99.99
2022-12-31T11:19:12.061Z,99.99
2022-12-31T11:20:11.796Z,99.99
2022-12-31T11:21:11.793Z,99.99
2022-12-31T11:22:12.032Z,99.99
2022-12-31T11:23:12.026Z,99.99
2022-12-31T11:24:12.026Z,99.99
2022-12-31T11:25:12.028Z,99.99
2022-12-31T11:26:12.028Z,99.99
2022-12-31T11:27:11.992Z,99.99
2022-12-31T11:28:11.737Z,99.99
2022-12-31T11:29:11.987Z,99.99
2022-12-31T11:30:12.005Z,99.99
2022-12-31T11:31:12.142Z,99.99
2022-12-31T11:32:11.995Z,99.99
2022-12-31T11:33:11.975Z,99.99
2022-12-31T11:34:11.940Z,99.99
2022-12-31T11:35:11.928Z,99.99
2022-12-31T11:36:11.687Z,99.99
2022-12-31T11:37:12.114Z,99.99
2022-12-31T11:38:11.914Z,99.99
2022-12-31T11:39:11.638Z,99.99
2022-12-31T11:40:11.632Z,99.99
2022-12-31T11:41:11.880Z,99.99
2022-12-31T11:42:11.873Z,99.99
2022-12-31T11:43:11.867Z,99.99
2022-12-31T11:44:11.876Z,99.99
2022-12-31T11:45:11.848Z,99.99
2022-12-31T11:46:11.935Z,99.99
2022-12-31T11:47:11.825Z,99.99
2022-12-31T11:48:41.571Z,99.99
2022-12-31T11:49:11.851Z,99.99
2022-12-31T11:50:11.807Z,99.99
2022-12-31T11:51:11.561Z,99.99
2022-12-31T11:52:11.539Z,99.99
2022-12-31T11:53:11.783Z,99.99
2022-12-31T11:54:11.530Z,99.99
2022-12-31T11:55:11.760Z,99.99
2022-12-31T11:56:11.756Z,99.99
2022-12-31T11:57:11.753Z,99.99
2022-12-31T11:58:11.754Z,99.99
2022-12-31T11:59:19.164Z,99.99
2022-12-31T12:00:11.731Z,99.99
2022-12-31T12:01:11.779Z,99.99
2022-12-31T12:02:11.723Z,99.99
2022-12-31T12:03:11.573Z,99.99
2022-12-31T12:04:11.698Z,99.99
2022-12-31T12:05:13.945Z,99.99
2022-12-31T12:06:11.418Z,99.99
2022-12-31T12:07:11.675Z,99.99
2022-12-31T12:08:11.417Z,99.99
2022-12-31T12:09:11.647Z,99.99
2022-12-31T12:10:11.661Z,99.99
2022-12-31T12:11:11.387Z,99.99
2022-12-31T12:12:11.386Z,99.99
2022-12-31T12:13:11.623Z,99.99
2022-12-31T12:14:11.606Z,99.99
2022-12-31T12:15:11.602Z,99.99
2022-12-31T12:16:11.667Z,99.99
2022-12-31T12:17:11.605Z,99.99
2022-12-31T12:18:11.337Z,99.99
2022-12-31T12:19:11.579Z,99.99
2022-12-31T12:20:11.590Z,99.99
2022-12-31T12:21:11.580Z,99.99
2022-12-31T12:22:11.546Z,99.99
2022-12-31T12:23:11.542Z,99.99
2022-12-31T12:24:11.535Z,99.99
2022-12-31T12:25:11.523Z,99.99
2022-12-31T12:26:11.518Z,99.99
2022-12-31T12:27:11.506Z,99.99
2022-12-31T12:28:11.494Z,99.99
2022-12-31T12:29:11.492Z,99.99
2022-12-31T12:30:11.562Z,99.99
2022-12-31T12:31:11.248Z,99.99
2022-12-31T12:32:11.470Z,99.99
2022-12-31T12:33:11.194Z,99.99
2022-12-31T12:34:11.189Z,99.99
2022-12-31T12:35:11.439Z,99.99
2022-12-31T12:36:11.486Z,99.99
2022-12-31T12:37:11.451Z,99.99
2022-12-31T12:38:11.414Z,99.99
2022-12-31T12:39:11.408Z,99.99
2022-12-31T12:40:11.488Z,99.99
2022-12-31T12:41:11.403Z,99.99
2022-12-31T12:42:11.378Z,99.99
2022-12-31T12:43:11.132Z,99.99
2022-12-31T12:44:11.135Z,99.99
2022-12-31T12:45:11.356Z,99.99
2022-12-31T12:46:11.394Z,99.99
2022-12-31T12:47:11.497Z,99.99
2022-12-31T12:48:11.339Z,99.99
2022-12-31T12:49:12.093Z,99.99
2022-12-31T12:50:11.837Z,99.99
2022-12-31T12:51:12.077Z,99.99
2022-12-31T12:52:12.100Z,99.99
2022-12-31T12:53:12.086Z,99.99
2022-12-31T12:54:12.050Z,99.99
2022-12-31T12:55:11.803Z,99.99
2022-12-31T12:56:12.043Z,99.99
2022-12-31T12:57:12.029Z,99.99
2022-12-31T12:58:19.024Z,99.99
2022-12-31T12:59:12.010Z,99.99
2022-12-31T13:00:12.138Z,99.99
2022-12-31T13:01:12.010Z,99.99
2022-12-31T13:02:12.294Z,99.99
2022-12-31T13:03:11.720Z,99.99
2022-12-31T13:04:41.701Z,99.99
2022-12-31T13:05:11.964Z,99.99
2022-12-31T13:06:11.710Z,99.99
2022-12-31T13:07:11.938Z,99.99
2022-12-31T13:08:11.955Z,99.99
2022-12-31T13:09:11.965Z,99.99
2022-12-31T13:10:12.026Z,99.99
2022-12-31T13:11:11.658Z,99.99